sensor_id;sensor_type;location;lat;lon;timestamp;pressure;altitude;pressure_sealevel;temperature;humidity
49461;BME280;35355;49.198;-0.368;2023-07-31T00:01:52;100911.59;;;20.78;55.75
49461;BME280;35355;49.198;-0.368;2023-07-31T00:04:17;100931.81;;;20.78;55.61
49461;BME280;35355;49.198;-0.368;2023-07-31T00:06:43;100932.16;;;20.77;55.98
49461;BME280;35355;49.198;-0.368;2023-07-31T00:09:08;100934.59;;;20.78;55.65
49461;BME280;35355;49.198;-0.368;2023-07-31T00:11:34;100935.75;;;20.77;55.57
49461;BME280;35355;49.198;-0.368;2023-07-31T00:13:59;100922.69;;;20.78;55.66
49461;BME280;35355;49.198;-0.368;2023-07-31T00:16:25;100912.59;;;20.73;55.42
49461;BME280;35355;49.198;-0.368;2023-07-31T00:18:50;100915.19;;;20.70;55.74
49461;BME280;35355;49.198;-0.368;2023-07-31T00:21:16;100911.75;;;20.64;55.74
49461;BME280;35355;49.198;-0.368;2023-07-31T00:23:41;100913.53;;;20.60;55.80
49461;BME280;35355;49.198;-0.368;2023-07-31T00:26:06;100919.06;;;20.60;56.08
49461;BME280;35355;49.198;-0.368;2023-07-31T00:28:32;100919.56;;;20.62;55.85
49461;BME280;35355;49.198;-0.368;2023-07-31T00:30:57;100912.03;;;20.62;55.88
49461;BME280;35355;49.198;-0.368;2023-07-31T00:33:22;100912.22;;;20.57;55.86
49461;BME280;35355;49.198;-0.368;2023-07-31T00:35:48;100907.66;;;20.53;56.16
49461;BME280;35355;49.198;-0.368;2023-07-31T00:38:13;100907.47;;;20.49;56.03
49461;BME280;35355;49.198;-0.368;2023-07-31T00:40:39;100912.22;;;20.48;56.25
49461;BME280;35355;49.198;-0.368;2023-07-31T00:43:04;100905.03;;;20.47;56.43
49461;BME280;35355;49.198;-0.368;2023-07-31T00:45:31;100917.75;;;20.48;56.68
49461;BME280;35355;49.198;-0.368;2023-07-31T00:47:56;100914.50;;;20.46;57.10
49461;BME280;35355;49.198;-0.368;2023-07-31T00:50:26;100915.16;;;20.43;57.60
49461;BME280;35355;49.198;-0.368;2023-07-31T00:52:52;100906.31;;;20.41;58.01
49461;BME280;35355;49.198;-0.368;2023-07-31T00:55:18;100895.75;;;20.43;58.12
49461;BME280;35355;49.198;-0.368;2023-07-31T00:57:45;100887.25;;;20.40;58.22
49461;BME280;35355;49.198;-0.368;2023-07-31T01:00:11;100886.78;;;20.38;58.37
49461;BME280;35355;49.198;-0.368;2023-07-31T01:02:36;100888.69;;;20.37;58.57
49461;BME280;35355;49.198;-0.368;2023-07-31T01:05:03;100879.09;;;20.35;58.41
49461;BME280;35355;49.198;-0.368;2023-07-31T01:10:17;100879.56;;;20.28;58.01
49461;BME280;35355;49.198;-0.368;2023-07-31T01:12:45;100873.38;;;20.31;58.36
49461;BME280;35355;49.198;-0.368;2023-07-31T01:15:11;100881.22;;;20.29;58.62
49461;BME280;35355;49.198;-0.368;2023-07-31T01:17:37;100875.66;;;20.29;58.69
49461;BME280;35355;49.198;-0.368;2023-07-31T01:20:07;100869.81;;;20.30;58.73
49461;BME280;35355;49.198;-0.368;2023-07-31T01:28:07;100859.03;;;20.29;58.49
49461;BME280;35355;49.198;-0.368;2023-07-31T01:30:38;100854.81;;;20.31;58.55
49461;BME280;35355;49.198;-0.368;2023-07-31T01:33:07;100847.13;;;20.28;58.70
49461;BME280;35355;49.198;-0.368;2023-07-31T01:35:34;100839.97;;;20.27;58.77
49461;BME280;35355;49.198;-0.368;2023-07-31T01:38:00;100831.97;;;20.26;58.91
49461;BME280;35355;49.198;-0.368;2023-07-31T01:40:25;100840.75;;;20.28;59.07
49461;BME280;35355;49.198;-0.368;2023-07-31T01:42:51;100845.84;;;20.26;58.97
49461;BME280;35355;49.198;-0.368;2023-07-31T01:45:16;100837.50;;;20.26;59.06
49461;BME280;35355;49.198;-0.368;2023-07-31T01:47:41;100836.69;;;20.25;59.07
49461;BME280;35355;49.198;-0.368;2023-07-31T01:50:07;100830.34;;;20.25;59.20
49461;BME280;35355;49.198;-0.368;2023-07-31T01:52:33;100833.59;;;20.27;59.21
49461;BME280;35355;49.198;-0.368;2023-07-31T01:54:58;100837.66;;;20.29;59.25
49461;BME280;35355;49.198;-0.368;2023-07-31T01:57:23;100825.78;;;20.29;59.18
49461;BME280;35355;49.198;-0.368;2023-07-31T01:59:49;100824.31;;;20.31;59.28
49461;BME280;35355;49.198;-0.368;2023-07-31T02:02:14;100810.47;;;20.31;59.10
49461;BME280;35355;49.198;-0.368;2023-07-31T02:04:39;100793.66;;;20.28;59.17
49461;BME280;35355;49.198;-0.368;2023-07-31T02:07:06;100807.69;;;20.31;58.93
49461;BME280;35355;49.198;-0.368;2023-07-31T02:09:31;100797.41;;;20.32;59.31
49461;BME280;35355;49.198;-0.368;2023-07-31T02:11:56;100784.69;;;20.31;59.31
49461;BME280;35355;49.198;-0.368;2023-07-31T02:14:22;100774.41;;;20.31;59.45
49461;BME280;35355;49.198;-0.368;2023-07-31T02:16:47;100783.88;;;20.30;59.50
49461;BME280;35355;49.198;-0.368;2023-07-31T02:19:13;100778.00;;;20.23;59.65
49461;BME280;35355;49.198;-0.368;2023-07-31T02:21:38;100785.00;;;20.21;59.67
49461;BME280;35355;49.198;-0.368;2023-07-31T02:24:04;100775.69;;;20.16;59.83
49461;BME280;35355;49.198;-0.368;2023-07-31T02:26:29;100784.19;;;20.11;59.99
49461;BME280;35355;49.198;-0.368;2023-07-31T02:28:55;100792.84;;;20.10;60.07
49461;BME280;35355;49.198;-0.368;2023-07-31T02:31:20;100783.22;;;20.07;60.32
49461;BME280;35355;49.198;-0.368;2023-07-31T02:33:45;100781.56;;;20.06;60.43
49461;BME280;35355;49.198;-0.368;2023-07-31T02:36:11;100782.41;;;20.07;60.57
49461;BME280;35355;49.198;-0.368;2023-07-31T02:38:36;100763.34;;;20.05;60.71
49461;BME280;35355;49.198;-0.368;2023-07-31T02:41:02;100767.72;;;20.06;60.73
49461;BME280;35355;49.198;-0.368;2023-07-31T02:43:27;100762.34;;;20.01;60.97
49461;BME280;35355;49.198;-0.368;2023-07-31T02:45:52;100755.03;;;20.05;61.05
49461;BME280;35355;49.198;-0.368;2023-07-31T02:48:18;100747.03;;;20.04;60.98
49461;BME280;35355;49.198;-0.368;2023-07-31T02:50:45;100742.94;;;20.01;60.81
49461;BME280;35355;49.198;-0.368;2023-07-31T02:53:10;100744.09;;;20.00;60.93
49461;BME280;35355;49.198;-0.368;2023-07-31T02:55:36;100743.75;;;20.02;61.08
49461;BME280;35355;49.198;-0.368;2023-07-31T02:58:01;100742.94;;;20.01;61.15
49461;BME280;35355;49.198;-0.368;2023-07-31T03:00:27;100738.88;;;19.98;61.17
49461;BME280;35355;49.198;-0.368;2023-07-31T03:02:53;100736.59;;;20.01;60.91
49461;BME280;35355;49.198;-0.368;2023-07-31T03:05:18;100736.28;;;20.02;61.41
49461;BME280;35355;49.198;-0.368;2023-07-31T03:07:44;100722.09;;;20.04;61.30
49461;BME280;35355;49.198;-0.368;2023-07-31T03:10:09;100727.97;;;20.02;61.25
49461;BME280;35355;49.198;-0.368;2023-07-31T03:12:34;100741.50;;;20.04;61.24
49461;BME280;35355;49.198;-0.368;2023-07-31T03:15:00;100738.41;;;20.05;61.23
49461;BME280;35355;49.198;-0.368;2023-07-31T03:17:25;100735.94;;;20.04;61.23
49461;BME280;35355;49.198;-0.368;2023-07-31T03:19:51;100727.31;;;20.05;61.29
49461;BME280;35355;49.198;-0.368;2023-07-31T03:22:16;100728.91;;;20.06;61.53
49461;BME280;35355;49.198;-0.368;2023-07-31T03:24:41;100728.91;;;20.06;61.50
49461;BME280;35355;49.198;-0.368;2023-07-31T03:27:07;100724.38;;;20.10;61.20
49461;BME280;35355;49.198;-0.368;2023-07-31T03:29:32;100718.00;;;20.10;61.37
49461;BME280;35355;49.198;-0.368;2023-07-31T03:31:58;100706.13;;;20.09;61.39
49461;BME280;35355;49.198;-0.368;2023-07-31T03:34:24;100694.38;;;20.12;61.36
49461;BME280;35355;49.198;-0.368;2023-07-31T03:36:49;100694.38;;;20.12;61.38
49461;BME280;35355;49.198;-0.368;2023-07-31T03:39:15;100689.31;;;20.14;61.33
49461;BME280;35355;49.198;-0.368;2023-07-31T03:41:40;100685.75;;;20.14;61.50
49461;BME280;35355;49.198;-0.368;2023-07-31T03:44:05;100677.75;;;20.12;61.54
49461;BME280;35355;49.198;-0.368;2023-07-31T03:46:31;100692.91;;;20.15;61.17
49461;BME280;35355;49.198;-0.368;2023-07-31T03:48:56;100692.75;;;20.11;61.26
49461;BME280;35355;49.198;-0.368;2023-07-31T03:51:22;100694.38;;;20.12;61.33
49461;BME280;35355;49.198;-0.368;2023-07-31T03:53:47;100695.19;;;20.13;61.44
49461;BME280;35355;49.198;-0.368;2023-07-31T03:56:13;100682.47;;;20.12;61.07
49461;BME280;35355;49.198;-0.368;2023-07-31T03:58:39;100665.38;;;20.10;61.33
49461;BME280;35355;49.198;-0.368;2023-07-31T04:01:04;100675.31;;;20.11;61.31
49461;BME280;35355;49.198;-0.368;2023-07-31T04:03:30;100676.13;;;20.11;61.29
49461;BME280;35355;49.198;-0.368;2023-07-31T04:05:55;100668.94;;;20.10;61.37
49461;BME280;35355;49.198;-0.368;2023-07-31T04:08:22;100674.00;;;20.08;61.42
49461;BME280;35355;49.198;-0.368;2023-07-31T04:10:47;100672.88;;;20.09;61.47
49461;BME280;35355;49.198;-0.368;2023-07-31T04:13:13;100671.72;;;20.10;61.50
49461;BME280;35355;49.198;-0.368;2023-07-31T04:15:38;100659.50;;;20.11;61.33
49461;BME280;35355;49.198;-0.368;2023-07-31T04:18:04;100660.31;;;20.12;61.38
49461;BME280;35355;49.198;-0.368;2023-07-31T04:20:30;100677.91;;;20.16;61.42
49461;BME280;35355;49.198;-0.368;2023-07-31T04:22:55;100681.81;;;20.15;61.40
49461;BME280;35355;49.198;-0.368;2023-07-31T04:25:21;100678.09;;;20.11;61.43
49461;BME280;35355;49.198;-0.368;2023-07-31T04:27:46;100679.22;;;20.10;61.39
49461;BME280;35355;49.198;-0.368;2023-07-31T04:30:11;100674.81;;;20.09;61.46
49461;BME280;35355;49.198;-0.368;2023-07-31T04:32:37;100669.13;;;20.05;61.58
49461;BME280;35355;49.198;-0.368;2023-07-31T04:35:03;100670.25;;;20.04;61.61
49461;BME280;35355;49.198;-0.368;2023-07-31T04:37:28;100673.84;;;20.05;61.64
49461;BME280;35355;49.198;-0.368;2023-07-31T04:39:54;100668.81;;;20.07;61.72
49461;BME280;35355;49.198;-0.368;2023-07-31T04:42:19;100667.50;;;20.04;61.72
49461;BME280;35355;49.198;-0.368;2023-07-31T04:44:45;100664.72;;;20.04;61.70
49461;BME280;35355;49.198;-0.368;2023-07-31T04:47:10;100669.59;;;20.07;61.76
49461;BME280;35355;49.198;-0.368;2023-07-31T04:49:35;100670.44;;;20.08;61.84
49461;BME280;35355;49.198;-0.368;2023-07-31T04:52:01;100658.53;;;20.07;62.03
49461;BME280;35355;49.198;-0.368;2023-07-31T04:54:26;100663.41;;;20.10;61.82
49461;BME280;35355;49.198;-0.368;2023-07-31T04:56:52;100671.72;;;20.10;61.68
49461;BME280;35355;49.198;-0.368;2023-07-31T04:59:18;100665.50;;;20.13;61.69
49461;BME280;35355;49.198;-0.368;2023-07-31T05:01:43;100668.28;;;20.13;61.72
49461;BME280;35355;49.198;-0.368;2023-07-31T05:04:12;100671.88;;;20.14;61.74
49461;BME280;35355;49.198;-0.368;2023-07-31T05:06:38;100658.03;;;20.14;61.87
49461;BME280;35355;49.198;-0.368;2023-07-31T05:09:03;100653.75;;;20.16;61.73
49461;BME280;35355;49.198;-0.368;2023-07-31T05:11:29;100643.84;;;20.15;61.82
49461;BME280;35355;49.198;-0.368;2023-07-31T05:13:54;100628.81;;;20.16;61.75
49461;BME280;35355;49.198;-0.368;2023-07-31T05:16:20;100627.22;;;20.15;61.82
49461;BME280;35355;49.198;-0.368;2023-07-31T05:18:46;100621.03;;;20.19;61.85
49461;BME280;35355;49.198;-0.368;2023-07-31T05:21:11;100615.81;;;20.17;61.65
49461;BME280;35355;49.198;-0.368;2023-07-31T05:23:36;100612.88;;;20.13;61.63
49461;BME280;35355;49.198;-0.368;2023-07-31T05:26:04;100599.84;;;20.05;62.06
49461;BME280;35355;49.198;-0.368;2023-07-31T05:28:29;100599.84;;;20.14;62.01
49461;BME280;35355;49.198;-0.368;2023-07-31T05:31:02;100597.41;;;20.12;61.89
49461;BME280;35355;49.198;-0.368;2023-07-31T05:33:27;100602.75;;;20.18;62.27
49461;BME280;35355;49.198;-0.368;2023-07-31T05:35:53;100607.63;;;20.21;62.01
49461;BME280;35355;49.198;-0.368;2023-07-31T05:38:18;100623.47;;;20.20;62.14
49461;BME280;35355;49.198;-0.368;2023-07-31T05:40:44;100620.50;;;20.25;62.04
49461;BME280;35355;49.198;-0.368;2023-07-31T05:43:09;100626.22;;;20.29;62.37
49461;BME280;35355;49.198;-0.368;2023-07-31T05:45:35;100601.94;;;20.17;62.36
49461;BME280;35355;49.198;-0.368;2023-07-31T05:48:02;100616.91;;;20.33;62.34
49461;BME280;35355;49.198;-0.368;2023-07-31T05:50:27;100612.16;;;20.34;62.35
49461;BME280;35355;49.198;-0.368;2023-07-31T05:52:53;100609.88;;;20.36;62.74
49461;BME280;35355;49.198;-0.368;2023-07-31T05:55:18;100610.81;;;20.40;62.57
49461;BME280;35355;49.198;-0.368;2023-07-31T05:57:43;100616.88;;;20.42;63.30
49461;BME280;35355;49.198;-0.368;2023-07-31T06:00:13;100616.19;;;20.45;63.09
49461;BME280;35355;49.198;-0.368;2023-07-31T06:02:39;100610.47;;;20.50;63.61
49461;BME280;35355;49.198;-0.368;2023-07-31T06:05:05;100602.63;;;20.53;62.95
49461;BME280;35355;49.198;-0.368;2023-07-31T06:07:33;100607.50;;;20.56;63.19
49461;BME280;35355;49.198;-0.368;2023-07-31T06:09:58;100603.75;;;20.60;63.19
49461;BME280;35355;49.198;-0.368;2023-07-31T06:12:31;100600.50;;;20.67;63.30
49461;BME280;35355;49.198;-0.368;2023-07-31T06:14:56;100600.97;;;20.69;63.28
49461;BME280;35355;49.198;-0.368;2023-07-31T06:17:22;100601.94;;;20.73;63.31
49461;BME280;35355;49.198;-0.368;2023-07-31T06:19:47;100609.25;;;20.78;63.41
49461;BME280;35355;49.198;-0.368;2023-07-31T06:22:13;100612.97;;;20.82;63.42
49461;BME280;35355;49.198;-0.368;2023-07-31T06:24:38;100610.34;;;20.85;63.75
49461;BME280;35355;49.198;-0.368;2023-07-31T06:27:04;100607.38;;;20.91;63.12
49461;BME280;35355;49.198;-0.368;2023-07-31T06:29:31;100603.78;;;20.90;62.91
49461;BME280;35355;49.198;-0.368;2023-07-31T06:31:57;100599.88;;;20.91;63.09
49461;BME280;35355;49.198;-0.368;2023-07-31T06:34:22;100596.75;;;20.93;63.16
49461;BME280;35355;49.198;-0.368;2023-07-31T06:36:47;100592.50;;;20.95;63.03
49461;BME280;35355;49.198;-0.368;2023-07-31T06:39:13;100589.19;;;21.02;62.93
49461;BME280;35355;49.198;-0.368;2023-07-31T06:41:39;100591.94;;;21.02;63.02
49461;BME280;35355;49.198;-0.368;2023-07-31T06:44:04;100585.13;;;20.99;62.92
49461;BME280;35355;49.198;-0.368;2023-07-31T06:46:29;100573.88;;;20.96;63.03
49461;BME280;35355;49.198;-0.368;2023-07-31T06:48:55;100583.84;;;20.97;63.12
49461;BME280;35355;49.198;-0.368;2023-07-31T06:51:20;100571.09;;;20.96;63.25
49461;BME280;35355;49.198;-0.368;2023-07-31T06:53:46;100574.03;;;20.99;63.31
49461;BME280;35355;49.198;-0.368;2023-07-31T06:56:12;100547.50;;;20.90;63.08
49461;BME280;35355;49.198;-0.368;2023-07-31T06:58:37;100563.75;;;21.00;62.96
49461;BME280;35355;49.198;-0.368;2023-07-31T07:01:02;100566.34;;;20.96;62.80
49461;BME280;35355;49.198;-0.368;2023-07-31T07:03:28;100569.69;;;20.90;62.79
49461;BME280;35355;49.198;-0.368;2023-07-31T07:05:54;100573.13;;;20.87;63.12
49461;BME280;35355;49.198;-0.368;2023-07-31T07:08:19;100576.09;;;20.81;63.08
49461;BME280;35355;49.198;-0.368;2023-07-31T07:10:45;100581.97;;;20.80;63.27
49461;BME280;35355;49.198;-0.368;2023-07-31T07:13:10;100577.09;;;20.77;63.32
49461;BME280;35355;49.198;-0.368;2023-07-31T07:15:37;100569.59;;;20.77;63.74
49461;BME280;35355;49.198;-0.368;2023-07-31T07:18:03;100581.84;;;20.76;63.59
49461;BME280;35355;49.198;-0.368;2023-07-31T07:20:28;100581.69;;;20.73;63.88
49461;BME280;35355;49.198;-0.368;2023-07-31T07:22:54;100586.28;;;20.68;63.91
49461;BME280;35355;49.198;-0.368;2023-07-31T07:25:19;100591.19;;;20.63;64.29
49461;BME280;35355;49.198;-0.368;2023-07-31T07:27:45;100579.91;;;20.59;64.61
49461;BME280;35355;49.198;-0.368;2023-07-31T07:30:10;100577.03;;;20.56;64.77
49461;BME280;35355;49.198;-0.368;2023-07-31T07:32:36;100577.19;;;20.50;65.23
49461;BME280;35355;49.198;-0.368;2023-07-31T07:35:01;100580.16;;;20.45;65.35
49461;BME280;35355;49.198;-0.368;2023-07-31T07:37:26;100577.72;;;20.44;65.80
49461;BME280;35355;49.198;-0.368;2023-07-31T07:39:52;100581.50;;;20.39;65.91
49461;BME280;35355;49.198;-0.368;2023-07-31T07:42:18;100576.13;;;20.34;66.18
49461;BME280;35355;49.198;-0.368;2023-07-31T07:44:43;100576.78;;;20.31;66.42
49461;BME280;35355;49.198;-0.368;2023-07-31T07:47:08;100575.81;;;20.27;66.45
49461;BME280;35355;49.198;-0.368;2023-07-31T07:49:35;100578.59;;;20.27;67.21
49461;BME280;35355;49.198;-0.368;2023-07-31T07:52:01;100575.00;;;20.26;67.31
49461;BME280;35355;49.198;-0.368;2023-07-31T07:54:26;100566.22;;;20.24;67.42
49461;BME280;35355;49.198;-0.368;2023-07-31T07:56:52;100565.41;;;20.24;67.79
49461;BME280;35355;49.198;-0.368;2023-07-31T07:59:17;100560.19;;;20.22;67.86
49461;BME280;35355;49.198;-0.368;2023-07-31T08:01:43;100565.72;;;20.22;68.07
49461;BME280;35355;49.198;-0.368;2023-07-31T08:04:08;100558.41;;;20.18;68.17
49461;BME280;35355;49.198;-0.368;2023-07-31T08:06:34;100551.25;;;20.16;68.35
49461;BME280;35355;49.198;-0.368;2023-07-31T08:08:59;100554.84;;;20.17;68.49
49461;BME280;35355;49.198;-0.368;2023-07-31T08:11:25;100541.31;;;20.15;68.67
49461;BME280;35355;49.198;-0.368;2023-07-31T08:13:50;100542.44;;;20.14;68.89
49461;BME280;35355;49.198;-0.368;2023-07-31T08:16:16;100527.47;;;20.15;69.02
49461;BME280;35355;49.198;-0.368;2023-07-31T08:18:41;100529.06;;;20.16;69.19
49461;BME280;35355;49.198;-0.368;2023-07-31T08:21:08;100518.94;;;20.21;69.31
49461;BME280;35355;49.198;-0.368;2023-07-31T08:23:33;100525.31;;;20.21;69.48
49461;BME280;35355;49.198;-0.368;2023-07-31T08:25:58;100521.38;;;20.22;69.51
49461;BME280;35355;49.198;-0.368;2023-07-31T08:28:24;100520.25;;;20.23;69.52
49461;BME280;35355;49.198;-0.368;2023-07-31T08:30:49;100516.69;;;20.23;69.67
49461;BME280;35355;49.198;-0.368;2023-07-31T08:33:15;100510.16;;;20.19;69.79
49461;BME280;35355;49.198;-0.368;2023-07-31T08:35:41;100515.84;;;20.22;69.78
49461;BME280;35355;49.198;-0.368;2023-07-31T08:38:06;100512.59;;;20.20;69.87
49461;BME280;35355;49.198;-0.368;2023-07-31T08:40:32;100511.81;;;20.20;70.03
49461;BME280;35355;49.198;-0.368;2023-07-31T08:43:01;100510.16;;;20.19;70.02
49461;BME280;35355;49.198;-0.368;2023-07-31T08:45:28;100500.22;;;20.18;70.15
49461;BME280;35355;49.198;-0.368;2023-07-31T08:47:54;100506.72;;;20.22;70.38
49461;BME280;35355;49.198;-0.368;2023-07-31T08:50:21;100506.88;;;20.25;70.46
49461;BME280;35355;49.198;-0.368;2023-07-31T08:52:47;100506.53;;;20.27;70.31
49461;BME280;35355;49.198;-0.368;2023-07-31T08:55:13;100499.38;;;20.26;70.33
49461;BME280;35355;49.198;-0.368;2023-07-31T08:57:39;100498.53;;;20.25;70.36
49461;BME280;35355;49.198;-0.368;2023-07-31T09:00:06;100496.28;;;20.27;70.52
49461;BME280;35355;49.198;-0.368;2023-07-31T09:02:43;100492.66;;;20.27;70.11
49461;BME280;35355;49.198;-0.368;2023-07-31T09:05:10;100498.03;;;20.32;70.68
49461;BME280;35355;49.198;-0.368;2023-07-31T09:07:36;100491.69;;;20.31;70.66
49461;BME280;35355;49.198;-0.368;2023-07-31T09:10:03;100486.94;;;20.32;70.67
49461;BME280;35355;49.198;-0.368;2023-07-31T09:12:28;100483.38;;;20.31;70.63
49461;BME280;35355;49.198;-0.368;2023-07-31T09:14:54;100466.13;;;20.26;70.40
49461;BME280;35355;49.198;-0.368;2023-07-31T09:17:33;100464.50;;;20.25;70.18
49461;BME280;35355;49.198;-0.368;2023-07-31T09:20:13;100470.84;;;20.25;70.04
49461;BME280;35355;49.198;-0.368;2023-07-31T09:22:39;100471.00;;;20.29;70.79
49461;BME280;35355;49.198;-0.368;2023-07-31T09:25:15;100459.41;;;20.27;70.61
49461;BME280;35355;49.198;-0.368;2023-07-31T09:30:24;100472.63;;;20.30;71.11
49461;BME280;35355;49.198;-0.368;2023-07-31T09:32:51;100482.06;;;20.29;71.36
49461;BME280;35355;49.198;-0.368;2023-07-31T09:35:27;100472.13;;;20.28;71.49
49461;BME280;35355;49.198;-0.368;2023-07-31T09:40:34;100464.78;;;20.32;71.43
49461;BME280;35355;49.198;-0.368;2023-07-31T09:43:02;100467.34;;;20.37;71.77
49461;BME280;35355;49.198;-0.368;2023-07-31T09:45:29;100468.31;;;20.41;72.08
49461;BME280;35355;49.198;-0.368;2023-07-31T09:47:56;100469.13;;;20.42;72.17
49461;BME280;35355;49.198;-0.368;2023-07-31T09:50:24;100466.03;;;20.43;71.94
49461;BME280;35355;49.198;-0.368;2023-07-31T09:52:50;100459.31;;;20.44;72.21
49461;BME280;35355;49.198;-0.368;2023-07-31T09:55:17;100471.56;;;20.43;72.38
49461;BME280;35355;49.198;-0.368;2023-07-31T09:57:47;100459.31;;;20.44;72.17
49461;BME280;35355;49.198;-0.368;2023-07-31T10:00:14;100468.13;;;20.46;72.52
49461;BME280;35355;49.198;-0.368;2023-07-31T10:02:41;100459.94;;;20.50;72.66
49461;BME280;35355;49.198;-0.368;2023-07-31T10:05:07;100455.34;;;20.54;72.71
49461;BME280;35355;49.198;-0.368;2023-07-31T10:07:37;100450.75;;;20.58;72.71
49461;BME280;35355;49.198;-0.368;2023-07-31T10:10:07;100453.50;;;20.67;72.89
49461;BME280;35355;49.198;-0.368;2023-07-31T10:12:34;100448.09;;;20.71;72.85
49461;BME280;35355;49.198;-0.368;2023-07-31T10:15:02;100442.53;;;20.71;72.72
49461;BME280;35355;49.198;-0.368;2023-07-31T10:17:29;100437.94;;;20.75;72.94
49461;BME280;35355;49.198;-0.368;2023-07-31T10:19:56;100440.50;;;20.80;72.73
49461;BME280;35355;49.198;-0.368;2023-07-31T10:22:22;100440.66;;;20.83;72.88
49461;BME280;35355;49.198;-0.368;2023-07-31T10:24:50;100426.09;;;20.87;72.80
49461;BME280;35355;49.198;-0.368;2023-07-31T10:27:17;100419.06;;;20.89;72.53
49461;BME280;35355;49.198;-0.368;2023-07-31T10:29:43;100416.22;;;20.98;72.58
49461;BME280;35355;49.198;-0.368;2023-07-31T10:32:12;100423.97;;;21.05;72.43
49461;BME280;35355;49.198;-0.368;2023-07-31T10:34:39;100425.72;;;21.09;72.47
49461;BME280;35355;49.198;-0.368;2023-07-31T10:37:28;100434.66;;;21.15;71.84
49461;BME280;35355;49.198;-0.368;2023-07-31T10:42:37;100424.63;;;21.23;71.67
49461;BME280;35355;49.198;-0.368;2023-07-31T10:45:07;100424.75;;;21.26;71.58
49461;BME280;35355;49.198;-0.368;2023-07-31T10:47:46;100421.66;;;21.28;71.29
49461;BME280;35355;49.198;-0.368;2023-07-31T10:50:13;100409.28;;;21.37;71.28
49461;BME280;35355;49.198;-0.368;2023-07-31T10:52:39;100394.38;;;21.42;71.38
49461;BME280;35355;49.198;-0.368;2023-07-31T10:55:24;100393.69;;;21.45;71.01
49461;BME280;35355;49.198;-0.368;2023-07-31T10:57:50;100402.63;;;21.51;70.89
49461;BME280;35355;49.198;-0.368;2023-07-31T11:03:00;100387.72;;;21.55;70.80
49461;BME280;35355;49.198;-0.368;2023-07-31T11:08:15;100380.78;;;21.62;70.32
49461;BME280;35355;49.198;-0.368;2023-07-31T11:10:45;100382.53;;;21.66;70.55
49461;BME280;35355;49.198;-0.368;2023-07-31T11:13:11;100390.06;;;21.66;70.03
49461;BME280;35355;49.198;-0.368;2023-07-31T11:15:36;100385.66;;;21.65;70.26
49461;BME280;35355;49.198;-0.368;2023-07-31T11:18:02;100395.63;;;21.66;69.70
49461;BME280;35355;49.198;-0.368;2023-07-31T11:20:35;100392.84;;;21.66;70.15
49461;BME280;35355;49.198;-0.368;2023-07-31T11:23:03;100388.53;;;21.68;69.88
49461;BME280;35355;49.198;-0.368;2023-07-31T11:25:30;100396.88;;;21.68;69.43
49461;BME280;35355;49.198;-0.368;2023-07-31T11:27:57;100384.16;;;21.67;69.48
49461;BME280;35355;49.198;-0.368;2023-07-31T11:30:22;100400.81;;;21.67;69.80
49461;BME280;35355;49.198;-0.368;2023-07-31T11:32:48;100398.38;;;21.66;69.98
49461;BME280;35355;49.198;-0.368;2023-07-31T11:35:13;100390.50;;;21.68;69.94
49461;BME280;35355;49.198;-0.368;2023-07-31T11:37:43;100407.41;;;21.75;70.01
49461;BME280;35355;49.198;-0.368;2023-07-31T11:40:10;100402.44;;;21.81;69.91
49461;BME280;35355;49.198;-0.368;2023-07-31T11:42:36;100388.66;;;21.84;69.68
49461;BME280;35355;49.198;-0.368;2023-07-31T11:45:03;100394.22;;;21.84;69.76
49461;BME280;35355;49.198;-0.368;2023-07-31T11:47:29;100390.41;;;21.89;69.98
49461;BME280;35355;49.198;-0.368;2023-07-31T11:49:55;100384.28;;;21.96;69.78
49461;BME280;35355;49.198;-0.368;2023-07-31T11:52:21;100374.88;;;22.00;69.57
49461;BME280;35355;49.198;-0.368;2023-07-31T11:54:48;100385.31;;;22.03;69.37
49461;BME280;35355;49.198;-0.368;2023-07-31T11:57:15;100377.31;;;22.02;69.26
49461;BME280;35355;49.198;-0.368;2023-07-31T11:59:41;100375.69;;;22.01;69.41
49461;BME280;35355;49.198;-0.368;2023-07-31T12:02:07;100375.69;;;22.01;69.70
49461;BME280;35355;49.198;-0.368;2023-07-31T12:04:33;100370.13;;;22.01;69.24
49461;BME280;35355;49.198;-0.368;2023-07-31T12:07:00;100373.25;;;21.99;69.28
49461;BME280;35355;49.198;-0.368;2023-07-31T12:09:26;100368.06;;;21.98;69.30
49461;BME280;35355;49.198;-0.368;2023-07-31T12:11:51;100367.59;;;21.96;69.43
49461;BME280;35355;49.198;-0.368;2023-07-31T12:14:24;100373.03;;;21.92;69.12
49461;BME280;35355;49.198;-0.368;2023-07-31T12:17:04;100374.56;;;21.89;69.29
49461;BME280;35355;49.198;-0.368;2023-07-31T12:19:30;100366.66;;;21.92;69.84
49461;BME280;35355;49.198;-0.368;2023-07-31T12:21:57;100383.78;;;21.94;69.25
49461;BME280;35355;49.198;-0.368;2023-07-31T12:24:23;100372.13;;;21.88;69.61
49461;BME280;35355;49.198;-0.368;2023-07-31T12:26:48;100362.84;;;21.84;69.41
49461;BME280;35355;49.198;-0.368;2023-07-31T12:29:14;100359.94;;;21.80;69.41
49461;BME280;35355;49.198;-0.368;2023-07-31T12:31:42;100364.59;;;21.76;69.22
49461;BME280;35355;49.198;-0.368;2023-07-31T12:34:16;100356.13;;;21.72;69.48
49461;BME280;35355;49.198;-0.368;2023-07-31T12:36:42;100335.06;;;21.71;69.98
49461;BME280;35355;49.198;-0.368;2023-07-31T12:39:08;100325.22;;;21.74;70.33
49461;BME280;35355;49.198;-0.368;2023-07-31T12:41:33;100312.13;;;21.75;69.88
49461;BME280;35355;49.198;-0.368;2023-07-31T12:43:58;100315.06;;;21.78;70.45
49461;BME280;35355;49.198;-0.368;2023-07-31T12:46:24;100317.13;;;21.81;70.08
49461;BME280;35355;49.198;-0.368;2023-07-31T12:48:49;100307.66;;;21.82;70.20
49461;BME280;35355;49.198;-0.368;2023-07-31T12:51:15;100312.38;;;21.82;70.15
49461;BME280;35355;49.198;-0.368;2023-07-31T12:53:40;100298.81;;;21.80;70.09
49461;BME280;35355;49.198;-0.368;2023-07-31T12:56:06;100295.00;;;21.85;70.14
49461;BME280;35355;49.198;-0.368;2023-07-31T12:58:31;100283.09;;;21.84;70.31